Time;durP1;ratioP1;P1;durP2;ratioP2;P2;SDS_P1;SDS_P2;PMS_P1;PMS_P2;Temp;Humidity;BMP_temperature;BMP_pressure;BME280_temperature;BME280_humidity;BME280_pressure;Samples;Min_cycle;Max_cycle;Signal;HPM_P1;HPM_P2
2022/02/04 00:25:32;;;;;;;3.08;2.65;;;;;;;20.94;28.01;94072.59;4862945;29;20158;-69
2022/02/04 00:28:02;;;;;;;3.00;2.70;;;;;;;20.96;28.20;94065.22;4880246;29;20028;-68
2022/02/04 00:30:34;;;;;;;;;;;;;;;21.48;27.70;94071.06;4892016;28;20038;-69
2022/02/04 00:33:01;;;;;;;2.90;2.60;;;;;;;21.10;28.02;94081.28;4942565;29;19929;-69
2022/02/04 00:35:51;;;;;;;3.45;3.00;;;;;;;21.01;28.08;94072.34;4958912;28;20086;-68
2022/02/04 00:38:28;;;;;;;3.28;2.58;;;;;;;21.05;27.83;94076.00;4934137;29;20114;-69
2022/02/04 00:41:00;;;;;;;3.10;2.80;;;;;;;20.99;27.92;94083.16;4940495;28;20130;-68
2022/02/04 00:43:25;;;;;;;3.00;2.63;;;;;;;20.97;27.83;94079.22;4935324;28;20030;-69
2022/02/04 00:46:40;;;;;;;3.22;2.92;;;;;;;20.98;27.97;94084.25;4932089;29;20030;-69
2022/02/04 00:49:05;;;;;;;2.72;2.53;;;;;;;21.00;27.96;94076.84;4928746;28;20046;-68
2022/02/04 00:51:35;;;;;;;3.17;2.88;;;;;;;21.02;27.87;94077.34;4935779;29;20087;-68
2022/02/04 01:26:43;;;;;;;2.85;2.50;;;;;;;20.87;27.54;94104.63;4947043;28;20054;-68
2022/02/04 01:29:09;;;;;;;3.08;2.78;;;;;;;20.89;27.11;94107.78;4925254;28;20034;-69
2022/02/04 01:31:35;;;;;;;3.10;2.80;;;;;;;20.86;27.19;94107.53;4940404;28;20105;-69
2022/02/04 01:34:00;;;;;;;2.67;2.47;;;;;;;20.86;27.22;94112.81;4945663;28;20035;-69
2022/02/04 01:36:26;;;;;;;3.00;2.67;;;;;;;20.87;27.29;94112.56;4926426;28;20039;-68
2022/02/04 01:38:51;;;;;;;3.00;2.70;;;;;;;20.88;27.04;94108.06;4941954;28;20031;-68
2022/02/04 01:41:20;;;;;;;2.92;2.65;;;;;;;20.83;27.14;94110.72;4927923;28;20054;-68
2022/02/04 01:43:48;;;;;;;3.17;2.88;;;;;;;20.78;26.82;94114.16;4943689;28;20031;-68
2022/02/04 01:46:14;;;;;;;3.20;2.90;;;;;;;20.77;26.81;94107.31;4920188;28;20038;-68
2022/02/04 01:48:40;;;;;;;2.95;2.67;;;;;;;20.74;26.65;94109.69;4945039;28;20057;-69
2022/02/04 01:51:13;;;;;;;3.30;2.58;;;;;;;20.69;26.99;94107.84;4932903;28;20031;-68
2022/02/04 01:53:38;;;;;;;4.35;2.88;;;;;;;20.74;26.70;94114.97;4929245;28;20028;-68
2022/02/04 01:56:13;;;;;;;3.38;3.08;;;;;;;20.72;26.79;94117.88;4925318;28;20098;-68
2022/02/04 01:58:39;;;;;;;3.00;2.70;;;;;;;20.67;26.52;94112.59;4943473;28;20027;-69
2022/02/04 02:01:04;;;;;;;3.10;2.80;;;;;;;20.69;26.50;94124.50;4951113;28;20031;-69
2022/02/04 02:03:30;;;;;;;3.13;2.83;;;;;;;20.72;26.41;94122.38;4923323;28;20027;-68
2022/02/04 02:06:00;;;;;;;3.05;2.75;;;;;;;20.73;26.33;94134.53;4931807;29;20175;-69
2022/02/04 02:08:28;;;;;;;3.65;2.72;;;;;;;20.77;26.57;94130.28;4931796;29;20048;-69
2022/02/04 02:10:54;;;;;;;2.83;2.60;;;;;;;20.72;26.72;94139.00;4920336;28;20114;-68
2022/02/04 02:13:48;;;;;;;3.15;2.83;;;;;;;20.81;26.51;94132.13;4936520;28;20025;-68
2022/02/04 02:43:56;;;;;;;3.60;3.30;;;;;;;20.64;26.35;94174.69;4851329;29;20577;-68
2022/02/04 02:54:15;;;;;;;3.70;2.97;;;;;;;20.63;26.47;94191.59;4890119;29;20037;-69
2022/02/04 02:59:13;;;;;;;3.55;3.25;;;;;;;20.67;26.38;94200.56;4874010;29;20302;-68
2022/02/04 03:01:44;;;;;;;3.60;3.13;;;;;;;20.67;26.48;94205.84;4870645;29;20045;-69
2022/02/04 03:04:15;;;;;;;3.60;3.25;;;;;;;20.65;26.55;94204.53;4915571;28;20036;-68
2022/02/04 03:06:42;;;;;;;3.95;3.53;;;;;;;20.68;26.40;94207.44;4929733;29;20024;-68
2022/02/04 03:09:07;;;;;;;4.43;4.03;;;;;;;20.72;26.60;94201.66;4910492;29;20031;-68
2022/02/04 03:11:33;;;;;;;4.55;3.90;;;;;;;20.69;26.83;94201.13;4924904;28;20038;-69
2022/02/04 03:13:59;;;;;;;5.82;4.60;;;;;;;20.68;26.84;94204.03;4939714;29;20030;-69
2022/02/04 03:16:25;;;;;;;4.97;4.45;;;;;;;20.68;26.51;94202.16;4941445;28;20080;-68
2022/02/04 03:18:52;;;;;;;4.70;4.20;;;;;;;20.73;26.93;94204.00;4918320;29;20034;-69
2022/02/04 03:21:23;;;;;;;5.53;4.80;;;;;;;20.72;26.89;94199.00;4931771;29;20118;-68
2022/02/04 03:23:55;;;;;;;6.07;5.47;;;;;;;20.67;26.56;94200.56;4943520;28;20102;-69
2022/02/04 03:26:45;;;;;;;6.53;5.93;;;;;;;20.64;26.75;94198.47;4920913;29;20031;-69
2022/02/04 03:29:30;;;;;;;6.82;5.75;;;;;;;20.63;26.98;94194.22;4930955;28;20031;-68
2022/02/04 03:32:02;;;;;;;6.85;5.60;;;;;;;20.63;27.05;94196.88;4932925;28;20049;-68
2022/02/04 03:34:36;;;;;;;6.25;5.65;;;;;;;20.61;27.12;94196.34;4941095;28;20034;-68
2022/02/04 03:37:02;;;;;;;7.10;5.22;;;;;;;20.59;27.07;94187.88;4947234;28;20295;-68
2022/02/04 03:39:28;;;;;;;5.93;5.18;;;;;;;20.60;27.12;94183.41;4943718;28;20039;-68
2022/02/04 03:41:53;;;;;;;5.40;4.90;;;;;;;20.63;26.89;94196.09;4946735;28;20046;-69
2022/02/04 03:44:24;;;;;;;5.57;5.00;;;;;;;20.62;27.06;94189.22;4945284;29;20026;-69
2022/02/04 03:46:50;;;;;;;5.30;4.80;;;;;;;20.64;26.63;94193.19;4944441;28;20046;-69
2022/02/04 03:49:15;;;;;;;5.28;4.78;;;;;;;20.67;26.81;94194.50;4924788;29;20035;-68
2022/02/04 03:51:40;;;;;;;5.22;4.70;;;;;;;20.67;26.74;94190.00;4943557;29;20071;-69
2022/02/04 03:54:06;;;;;;;4.63;4.22;;;;;;;20.70;26.66;94197.41;4943721;28;20031;-69
2022/02/04 03:56:31;;;;;;;4.75;4.25;;;;;;;20.70;26.34;94200.06;4955362;28;20027;-68
2022/02/04 03:58:57;;;;;;;4.88;4.38;;;;;;;20.68;26.58;94202.16;4935259;29;20031;-69
2022/02/04 04:01:22;;;;;;;4.75;4.28;;;;;;;20.70;26.31;94204.56;4938874;29;20027;-69
2022/02/04 04:03:48;;;;;;;4.70;4.30;;;;;;;20.72;26.25;94209.56;4945556;28;20054;-68
2022/02/04 04:06:14;;;;;;;5.32;4.53;;;;;;;20.71;26.26;94208.75;4931707;28;20039;-69
2022/02/04 04:08:40;;;;;;;4.90;4.40;;;;;;;20.67;25.91;94203.22;4924858;28;20035;-69
2022/02/04 04:11:05;;;;;;;5.00;4.50;;;;;;;20.66;26.31;94196.34;4929276;29;20035;-69
2022/02/04 04:13:31;;;;;;;5.40;4.90;;;;;;;20.62;26.20;94194.50;4948014;28;20023;-69
2022/02/04 04:15:56;;;;;;;5.15;4.65;;;;;;;20.60;26.37;94205.34;4958476;28;20034;-69
2022/02/04 04:18:22;;;;;;;4.50;4.10;;;;;;;20.60;26.71;94209.81;4947045;28;20023;-68
2022/02/04 04:20:47;;;;;;;5.40;4.90;;;;;;;20.61;26.17;94196.34;4954872;28;20031;-68
2022/02/04 04:23:12;;;;;;;4.97;4.43;;;;;;;20.60;26.18;94201.91;4959708;28;20035;-68
2022/02/04 04:25:38;;;;;;;5.25;4.75;;;;;;;20.60;26.29;94188.69;4919787;28;20042;-68
2022/02/04 04:28:12;;;;;;;4.68;4.28;;;;;;;20.56;26.02;94185.78;4917334;29;20031;-68
2022/02/04 04:30:38;;;;;;;4.82;4.43;;;;;;;20.57;26.37;94182.06;4937052;28;20030;-69
2022/02/04 04:33:03;;;;;;;5.30;4.80;;;;;;;20.62;26.22;94176.00;4942803;28;20198;-68
2022/02/04 04:35:29;;;;;;;5.28;4.78;;;;;;;20.64;26.07;94176.56;4934553;28;20032;-68
2022/02/04 04:38:02;;;;;;;5.20;4.70;;;;;;;20.65;25.91;94186.06;4920370;28;20027;-69
2022/02/04 05:29:24;;;;;;;5.95;4.70;;;;;;;20.57;25.87;94190.00;4951189;28;20046;-68
2022/02/04 05:31:49;;;;;;;5.25;4.75;;;;;;;20.58;25.29;94190.78;4926341;28;20031;-69
2022/02/04 05:34:16;;;;;;;5.13;4.63;;;;;;;20.61;25.69;94175.22;4963450;28;20065;-68
2022/02/04 05:36:44;;;;;;;5.10;4.60;;;;;;;20.61;25.56;94177.88;4920600;28;20031;-69
2022/02/04 05:39:12;;;;;;;5.78;5.18;;;;;;;20.63;25.43;94182.88;4938856;28;20055;-68
2022/02/04 05:41:41;;;;;;;6.05;5.45;;;;;;;20.61;25.44;94177.88;4932367;28;20081;-69
2022/02/04 05:44:15;;;;;;;5.90;5.30;;;;;;;20.59;25.27;94179.16;4945183;28;20103;-68
2022/02/04 05:47:05;;;;;;;7.18;5.55;;;;;;;20.55;25.42;94172.84;4942284;28;20031;-68
2022/02/04 05:49:34;;;;;;;6.10;5.50;;;;;;;20.55;25.27;94181.53;4949744;28;20034;-68
2022/02/04 05:52:23;;;;;;;6.00;5.40;;;;;;;20.52;25.54;94182.06;4935228;28;20083;-68
2022/02/04 05:55:07;;;;;;;5.93;5.15;;;;;;;20.54;25.21;94177.31;4924959;28;20096;-69
2022/02/04 06:24:31;;;;;;;5.05;4.53;;;;;;;20.59;25.33;94200.31;4865848;29;20052;-68
2022/02/04 06:26:56;;;;;;;5.65;5.10;;;;;;;20.59;25.37;94210.88;4872122;29;20036;-69
2022/02/04 06:29:23;;;;;;;6.00;5.18;;;;;;;20.55;25.12;94210.59;4863182;29;20061;-68
2022/02/04 06:31:50;;;;;;;5.93;5.30;;;;;;;20.54;25.39;94213.50;4864442;29;20097;-69
2022/02/04 06:34:16;;;;;;;5.55;4.95;;;;;;;20.49;25.46;94212.44;4840429;29;20075;-68
2022/02/04 06:36:41;;;;;;;6.07;5.20;;;;;;;20.50;25.37;94219.31;4860641;29;20064;-70
2022/02/04 06:39:12;;;;;;;5.60;4.93;;;;;;;20.47;25.56;94216.41;4873386;29;20037;-68
2022/02/04 06:41:37;;;;;;;5.75;4.97;;;;;;;20.47;25.44;94219.06;4877103;29;20044;-69
2022/02/04 06:44:03;;;;;;;5.10;4.60;;;;;;;20.47;25.57;94222.50;4873343;29;20054;-69
2022/02/04 06:46:29;;;;;;;4.45;4.05;;;;;;;20.43;25.48;94220.66;4873971;29;20028;-69
2022/02/04 06:48:54;;;;;;;4.32;3.92;;;;;;;20.46;25.38;94231.44;4879168;29;20254;-68
2022/02/04 06:51:20;;;;;;;4.20;3.80;;;;;;;20.49;25.38;94223.00;4889367;29;20044;-69
2022/02/04 06:53:45;;;;;;;4.90;3.85;;;;;;;20.53;25.37;94225.91;4877749;29;20032;-69
2022/02/04 06:56:11;;;;;;;4.10;3.65;;;;;;;20.57;25.29;94231.47;4920953;28;20105;-68
2022/02/04 06:58:45;;;;;;;3.90;3.50;;;;;;;20.56;25.68;94233.34;4934204;28;20035;-68
2022/02/04 07:01:11;;;;;;;4.20;3.80;;;;;;;20.57;25.36;94234.91;4954783;28;20063;-68
2022/02/04 07:03:36;;;;;;;3.47;3.17;;;;;;;20.55;25.22;94234.38;4936856;28;20053;-69
2022/02/04 07:06:05;;;;;;;3.50;3.20;;;;;;;20.57;25.17;94234.13;4921756;28;20064;-70
2022/02/04 07:08:44;;;;;;;3.22;2.92;;;;;;;20.57;25.14;94237.53;4922469;28;20030;-69
2022/02/04 07:21:39;;;;;;;3.47;3.17;;;;;;;20.52;25.14;94242.81;4941938;28;20094;-68
2022/02/04 07:24:05;;;;;;;3.72;3.42;;;;;;;20.48;25.23;94244.41;4913019;28;20062;-69
2022/02/04 07:26:30;;;;;;;3.63;3.33;;;;;;;20.49;25.00;94240.72;4940737;28;20037;-69
2022/02/04 07:28:59;;;;;;;3.92;3.63;;;;;;;20.48;25.15;94239.13;4932081;28;20032;-68
2022/02/04 07:31:27;;;;;;;4.18;3.78;;;;;;;20.54;25.00;94238.06;4945299;28;20030;-68
2022/02/04 07:34:06;;;;;;;4.05;3.67;;;;;;;20.57;24.90;94242.03;4946094;28;20041;-68
2022/02/04 07:41:50;;;;;;;3.65;3.35;;;;;;;20.58;24.68;94239.13;4944952;29;20027;-69
2022/02/04 07:44:16;;;;;;;3.50;3.20;;;;;;;20.63;24.53;94236.50;4930035;28;20069;-68
2022/02/04 07:46:42;;;;;;;3.42;3.13;;;;;;;20.63;24.45;94235.72;4918843;29;20035;-69
2022/02/04 07:49:13;;;;;;;3.10;2.90;;;;;;;20.61;24.59;94241.25;4928449;28;20094;-69
2022/02/04 07:51:40;;;;;;;3.05;2.85;;;;;;;20.63;24.57;94241.00;4935835;28;20034;-66
2022/02/04 07:54:06;;;;;;;3.33;3.03;;;;;;;20.64;24.83;94245.25;4923670;29;20035;-66
2022/02/04 07:56:32;;;;;;;3.90;3.60;;;;;;;20.63;24.59;94241.00;4932623;28;20027;-67
2022/02/04 07:59:00;;;;;;;5.13;4.63;;;;;;;20.66;24.56;94248.41;4927100;29;20040;-66
2022/02/04 08:01:30;;;;;;;5.75;5.25;;;;;;;20.65;24.78;94252.88;4941372;28;20031;-67
2022/02/04 08:04:10;;;;;;;5.25;4.85;;;;;;;20.70;24.93;94247.63;4904348;29;20087;-67
2022/02/04 08:06:52;;;;;;;5.23;4.70;;;;;;;20.77;24.82;94251.84;4940750;28;20039;-67
2022/02/04 08:52:06;;;;;;;4.93;4.50;;;;;;;20.81;25.75;94243.13;4880874;29;20721;-66
2022/02/04 08:54:28;;;;;;;5.25;4.85;;;;;;;20.85;25.34;94243.38;4877279;29;20131;-66
2022/02/04 08:57:01;;;;;;;5.32;4.63;;;;;;;20.84;24.90;94239.16;4882336;29;20047;-68
2022/02/04 08:59:40;;;;;;;5.75;5.25;;;;;;;20.85;25.71;94243.38;4875617;29;20048;-68
2022/02/04 09:04:42;;;;;;;5.40;4.90;;;;;;;20.87;25.90;94238.63;4898356;29;20039;-67
2022/02/04 09:07:10;;;;;;;5.43;4.90;;;;;;;20.87;25.55;94243.91;4922732;28;20034;-69
2022/02/04 09:09:54;;;;;;;5.43;4.93;;;;;;;20.86;26.04;94253.69;4927670;29;20035;-68
2022/02/04 09:20:36;;;;;;;4.80;4.40;;;;;;;20.91;26.20;94244.97;4845465;29;20109;-68
2022/02/04 09:23:01;;;;;;;5.40;4.80;;;;;;;20.91;25.95;94237.03;4825242;29;20043;-69
2022/02/04 09:25:27;;;;;;;4.45;4.05;;;;;;;20.92;26.29;94233.31;4834411;29;20037;-68
2022/02/04 09:27:53;;;;;;;4.75;4.35;;;;;;;20.92;26.12;94229.91;4834188;29;20041;-68
2022/02/04 09:30:29;;;;;;;5.20;4.70;;;;;;;20.90;26.56;94240.72;4836919;29;20045;-69
2022/02/04 09:32:54;;;;;;;5.13;4.63;;;;;;;20.91;26.19;94230.97;4813419;29;20053;-69
2022/02/04 09:35:23;;;;;;;4.80;4.30;;;;;;;20.89;26.25;94224.09;4834133;29;20045;-69
2022/02/04 09:37:49;;;;;;;4.90;4.40;;;;;;;20.90;26.65;94216.94;4835831;29;20029;-68
2022/02/04 09:40:15;;;;;;;4.50;4.10;;;;;;;20.91;26.57;94213.25;4827732;29;20068;-68
2022/02/04 09:42:40;;;;;;;4.97;4.30;;;;;;;20.91;26.41;94220.41;4833956;29;20085;-69
2022/02/04 09:45:07;;;;;;;4.82;4.32;;;;;;;20.90;26.30;94219.56;4842160;29;20052;-68
2022/02/04 09:47:36;;;;;;;4.85;4.18;;;;;;;20.92;26.59;94221.97;4867247;29;20131;-69
2022/02/04 09:50:20;;;;;;;4.85;4.05;;;;;;;20.94;26.74;94217.19;4860716;29;20031;-68
2022/02/04 10:12:55;;;;;;;4.10;3.70;;;;;;;20.98;26.69;94212.97;4894885;29;20027;-69
2022/02/04 10:18:11;;;;;;;4.07;3.60;;;;;;;20.95;27.11;94206.38;4901610;29;20108;-69
2022/02/04 10:20:40;;;;;;;4.10;3.70;;;;;;;20.91;27.07;94201.88;4898036;29;20035;-67
2022/02/04 10:23:06;;;;;;;4.47;3.85;;;;;;;20.94;26.92;94198.69;4904471;29;20051;-67
2022/02/04 10:25:50;;;;;;;4.20;3.80;;;;;;;20.93;27.18;94197.91;4913373;29;20040;-68
2022/02/04 10:28:26;;;;;;;4.00;3.60;;;;;;;20.95;27.38;94190.50;4901402;29;20032;-68
2022/02/04 10:31:07;;;;;;;4.03;3.63;;;;;;;20.95;27.46;94181.78;4891434;29;20055;-68
2022/02/04 10:33:57;;;;;;;3.90;3.50;;;;;;;21.02;27.30;94188.38;4896096;29;20071;-68
2022/02/04 10:39:53;;;;;;;4.00;3.60;;;;;;;20.99;27.16;94175.69;4857466;29;20048;-69
2022/02/04 11:04:24;;;;;;;3.63;3.20;;;;;;;21.03;27.20;94142.38;4831685;29;20091;-68
2022/02/04 11:07:09;;;;;;;4.05;3.42;;;;;;;20.98;27.64;94131.81;4814463;29;20133;-68
2022/02/04 11:34:39;;;;;;;3.90;3.35;;;;;;;20.92;27.84;94100.38;4889180;28;20047;-68
2022/02/04 11:57:23;;;;;;;4.28;3.85;;;;;;;20.98;28.33;94099.28;4953029;28;20077;-69
2022/02/04 11:59:52;;;;;;;4.22;3.63;;;;;;;20.91;28.29;94104.09;4864191;29;20072;-68
2022/02/04 12:02:27;;;;;;;5.10;4.40;;;;;;;20.86;28.57;94104.88;4869539;29;20036;-68
2022/02/04 12:05:24;;;;;;;4.60;4.20;;;;;;;20.94;28.28;94103.53;4875203;29;20047;-68
2022/02/04 12:08:10;;;;;;;4.50;4.10;;;;;;;20.91;28.27;94096.16;4886358;29;20037;-68
2022/02/04 12:10:50;;;;;;;5.47;4.50;;;;;;;20.88;28.38;94089.56;4873893;29;20073;-68
2022/02/04 12:13:17;;;;;;;5.17;4.20;;;;;;;20.92;28.21;94090.59;4877543;29;20410;-68
2022/02/04 12:15:56;;;;;;;4.65;4.15;;;;;;;20.90;28.65;94090.06;4860136;29;20115;-68
2022/02/04 12:18:51;;;;;;;4.82;4.20;;;;;;;21.00;28.47;94090.06;4875883;29;20109;-68
2022/02/04 12:21:19;;;;;;;5.38;4.55;;;;;;;20.93;28.32;94084.25;4889370;29;20037;-68
2022/02/04 12:23:51;;;;;;;5.63;4.50;;;;;;;20.94;28.12;94071.81;4858754;29;20045;-68
2022/02/04 12:26:37;;;;;;;4.13;3.72;;;;;;;20.96;28.50;94069.69;4861785;29;20147;-68
2022/02/04 12:29:12;;;;;;;6.13;4.20;;;;;;;21.01;28.13;94069.69;4878952;29;20219;-68
2022/02/04 12:31:42;;;;;;;4.57;4.10;;;;;;;21.01;28.30;94075.75;4859610;29;20043;-68
2022/02/04 12:34:11;;;;;;;4.95;4.45;;;;;;;21.00;28.24;94071.53;4858310;29;20121;-68
2022/02/04 12:36:42;;;;;;;5.40;4.15;;;;;;;21.00;28.09;94074.19;4892884;28;20035;-68
2022/02/04 12:39:14;;;;;;;4.97;4.53;;;;;;;21.02;28.13;94080.00;4919958;28;20164;-68
2022/02/04 12:42:10;;;;;;;5.00;4.50;;;;;;;20.98;28.29;94078.16;4944830;28;20049;-68
2022/02/04 12:44:40;;;;;;;6.13;4.25;;;;;;;20.97;28.51;94080.00;4940531;28;20050;-68
2022/02/04 12:47:13;;;;;;;5.03;4.53;;;;;;;20.99;28.23;94077.09;4928525;28;20038;-68
2022/02/04 12:50:13;;;;;;;4.70;4.30;;;;;;;21.11;28.37;94076.78;4914557;28;20054;-68
2022/02/04 12:52:45;;;;;;;4.93;4.43;;;;;;;21.02;28.06;94072.06;4896117;29;20047;-68
2022/02/04 12:55:21;;;;;;;5.43;4.50;;;;;;;20.99;28.16;94059.38;4863191;29;20033;-68
2022/02/04 13:03:06;;;;;;;5.15;4.32;;;;;;;21.07;28.26;94058.81;4894241;29;20131;-68
2022/02/04 13:08:49;;;;;;;6.53;5.00;;;;;;;20.97;28.32;94061.50;4877559;29;20107;-68
2022/02/04 13:11:13;;;;;;;5.60;5.00;;;;;;;21.03;27.99;94057.00;4895253;29;20044;-68
2022/02/04 13:16:08;;;;;;;5.85;4.90;;;;;;;20.93;28.19;94055.19;4892241;29;20043;-68
2022/02/04 13:18:33;;;;;;;6.35;5.00;;;;;;;20.94;28.37;94056.75;4896555;29;20065;-67
2022/02/04 13:21:02;;;;;;;5.47;4.97;;;;;;;20.94;28.50;94054.09;4863584;29;20033;-68
2022/02/04 13:23:35;;;;;;;6.57;4.90;;;;;;;20.93;28.29;94055.19;4876226;29;20048;-67
2022/02/04 13:26:02;;;;;;;6.20;4.90;;;;;;;20.94;28.27;94045.38;4884061;29;20042;-68
2022/02/04 13:28:35;;;;;;;4.93;4.43;;;;;;;20.95;28.33;94045.13;4883195;28;20024;-67
2022/02/04 13:31:08;;;;;;;5.32;4.50;;;;;;;20.93;28.45;94049.91;4935932;28;20121;-68
2022/02/04 13:33:44;;;;;;;5.82;4.88;;;;;;;20.97;28.20;94034.28;4928054;28;20027;-67
2022/02/04 13:36:50;;;;;;;5.15;4.65;;;;;;;21.13;28.18;94030.50;4915767;28;20135;-68
2022/02/04 13:40:05;;;;;;;4.90;4.45;;;;;;;20.99;28.08;94024.22;4892665;29;20127;-67
2022/02/04 13:42:14;;;;;;;4.80;4.20;;;;;;;21.06;27.83;94038.72;4903575;29;20064;-68
2022/02/04 13:44:50;;;;;;;4.95;4.45;;;;;;;20.98;28.13;94038.50;4883356;29;20059;-67
2022/02/04 13:53:59;;;;;;;4.93;4.38;;;;;;;21.03;27.80;94033.19;4881678;29;20025;-67
2022/02/04 13:56:27;;;;;;;5.47;4.35;;;;;;;21.00;28.00;94034.53;4888183;29;20040;-67
2022/02/04 13:59:10;;;;;;;4.80;4.30;;;;;;;20.99;27.92;94026.88;4878282;29;20059;-67
2022/02/04 14:01:55;;;;;;;5.20;4.70;;;;;;;20.99;28.17;94030.31;4868142;29;20044;-67
2022/02/04 14:04:21;;;;;;;6.63;4.57;;;;;;;20.98;27.79;94020.00;4899113;29;20150;-68
2022/02/04 14:06:46;;;;;;;5.53;4.75;;;;;;;20.96;27.64;94020.28;4858403;29;20043;-67
2022/02/04 14:09:16;;;;;;;5.47;4.90;;;;;;;20.96;27.98;94028.22;4883314;29;20041;-67
2022/02/04 14:11:42;;;;;;;5.27;4.77;;;;;;;20.96;28.08;94025.56;4876825;29;20055;-67
2022/02/04 14:14:09;;;;;;;4.57;4.18;;;;;;;20.92;28.01;94021.09;4868442;29;20138;-67
2022/02/04 14:16:44;;;;;;;5.53;4.10;;;;;;;20.89;28.18;94025.06;4917429;29;20036;-68
2022/02/04 14:19:09;;;;;;;4.80;4.30;;;;;;;20.91;27.93;94025.59;4932035;29;20040;-67
2022/02/04 14:21:35;;;;;;;5.32;4.30;;;;;;;20.91;27.91;94025.59;4915990;29;20039;-68
2022/02/04 14:24:08;;;;;;;5.05;4.55;;;;;;;20.91;27.76;94035.38;4909381;28;20039;-67
2022/02/04 14:26:37;;;;;;;5.47;4.93;;;;;;;20.91;28.18;94036.16;4948413;28;20035;-67
2022/02/04 14:29:44;;;;;;;4.38;3.97;;;;;;;20.88;27.85;94032.19;4934949;28;20102;-68
2022/02/04 15:01:33;;;;;;;;;;;;;;;21.39;27.28;94049.66;4888199;29;20055;-68
2022/02/04 15:04:07;;;;;;;4.38;3.97;;;;;;;20.91;28.13;94038.81;4878667;29;19916;-68
2022/02/04 15:06:35;;;;;;;4.68;4.18;;;;;;;20.82;28.33;94041.22;4858966;29;20041;-68
2022/02/04 15:09:05;;;;;;;4.53;4.13;;;;;;;20.82;28.22;94032.50;4866031;29;20040;-67
2022/02/04 15:11:33;;;;;;;;;;;;;;;21.34;27.50;94035.66;4882281;29;20040;-67
2022/02/04 15:14:02;;;;;;;4.45;4.05;;;;;;;20.97;28.08;94034.28;4858039;29;19925;-68
2022/02/04 15:16:27;;;;;;;4.47;4.07;;;;;;;20.93;27.87;94034.03;4875664;29;20040;-67
2022/02/04 15:18:53;;;;;;;4.05;3.65;;;;;;;20.92;28.07;94032.44;4871868;29;20036;-68
2022/02/04 15:21:19;;;;;;;4.78;3.50;;;;;;;20.92;27.78;94019.22;4860758;29;20048;-68
2022/02/04 15:23:48;;;;;;;4.00;3.42;;;;;;;20.90;27.96;94018.72;4868103;29;20104;-68
2022/02/04 15:26:14;;;;;;;4.68;3.60;;;;;;;20.89;27.91;94014.50;4877899;29;20040;-68
2022/02/04 15:28:46;;;;;;;4.47;3.47;;;;;;;20.91;28.29;94022.94;4847832;29;20120;-68
2022/02/04 15:31:35;;;;;;;3.90;3.50;;;;;;;20.93;28.30;94026.09;4864408;29;20040;-68
2022/02/04 15:34:04;;;;;;;4.07;3.45;;;;;;;20.96;28.06;94033.50;4878370;29;20040;-68
2022/02/04 15:36:35;;;;;;;4.88;3.25;;;;;;;20.95;27.98;94031.13;4902498;29;20095;-68
2022/02/04 15:39:02;;;;;;;3.50;3.20;;;;;;;20.97;28.21;94045.66;4915280;29;20030;-67
2022/02/04 15:41:28;;;;;;;3.30;2.92;;;;;;;20.97;28.02;94050.16;4951312;28;20027;-67
2022/02/04 15:44:05;;;;;;;3.45;2.97;;;;;;;20.92;28.12;94064.16;4944176;28;20111;-68
2022/02/04 15:49:54;;;;;;;3.95;3.40;;;;;;;20.97;28.09;94069.44;4949629;28;20033;-68
2022/02/04 15:58:15;;;;;;;3.35;3.05;;;;;;;20.97;28.22;94061.50;4917355;28;20110;-68
2022/02/04 16:05:42;;;;;;;3.92;3.40;;;;;;;21.01;28.24;94067.03;4917677;29;20054;-68
2022/02/04 16:08:11;;;;;;;3.75;3.35;;;;;;;20.97;28.11;94069.44;4929578;29;20020;-68
2022/02/04 16:11:07;;;;;;;3.83;3.42;;;;;;;20.97;28.13;94060.72;4920289;29;20054;-67
2022/02/04 16:13:41;;;;;;;4.18;3.78;;;;;;;20.96;28.01;94070.50;4918306;29;20138;-68
2022/02/04 16:29:17;;;;;;;3.50;3.20;;;;;;;20.91;27.95;94089.03;4885775;29;20028;-67
2022/02/04 16:31:43;;;;;;;4.22;3.83;;;;;;;20.93;28.18;94096.69;4884690;29;20084;-67
2022/02/04 16:34:09;;;;;;;4.00;3.60;;;;;;;20.92;28.18;94095.09;4900070;29;20035;-67
2022/02/04 16:36:42;;;;;;;6.57;3.88;;;;;;;20.89;27.97;94097.22;4903143;29;20039;-68
2022/02/04 16:39:09;;;;;;;3.75;3.38;;;;;;;20.92;28.11;94101.16;4913991;29;20036;-67
2022/02/04 16:41:49;;;;;;;3.92;3.53;;;;;;;20.88;28.05;94103.56;4906013;29;20154;-68
2022/02/04 16:44:15;;;;;;;3.40;3.10;;;;;;;20.97;28.00;94119.66;4914846;29;20133;-68
2022/02/04 16:46:43;;;;;;;3.42;3.00;;;;;;;20.93;28.04;94115.19;4929816;29;20256;-68
2022/02/04 16:49:08;;;;;;;4.00;3.33;;;;;;;20.94;27.84;94122.81;4901960;29;20037;-68
2022/02/04 16:51:36;;;;;;;4.15;3.10;;;;;;;20.94;27.78;94122.03;4905683;29;20156;-68
2022/02/04 16:54:02;;;;;;;5.38;3.20;;;;;;;20.94;27.72;94125.47;4926432;29;20032;-68
2022/02/04 16:56:32;;;;;;;3.63;2.90;;;;;;;20.93;27.82;94126.53;4902028;29;20150;-67
2022/02/04 16:58:59;;;;;;;;;;;;;;;21.45;27.45;94137.75;4941791;28;20071;-68
2022/02/04 17:01:25;;;;;;;3.53;2.88;;;;;;;21.07;27.70;94139.97;4957476;28;19966;-67
2022/02/04 17:03:50;;;;;;;3.13;2.83;;;;;;;21.01;27.67;94135.78;4928336;28;20093;-68
2022/02/04 17:06:17;;;;;;;3.70;2.97;;;;;;;20.98;27.97;94137.13;4941322;28;20038;-68
2022/02/04 17:08:53;;;;;;;3.88;3.03;;;;;;;20.95;27.80;94145.56;4947576;28;20032;-68
2022/02/04 17:11:22;;;;;;;3.30;3.00;;;;;;;20.95;28.20;94148.22;4940970;28;20031;-68
2022/02/04 17:13:47;;;;;;;3.60;3.30;;;;;;;20.95;28.12;94145.56;4929133;28;20050;-68
2022/02/04 17:16:13;;;;;;;3.90;3.25;;;;;;;20.95;27.92;94148.22;4928952;28;20035;-68
2022/02/04 17:18:38;;;;;;;3.92;3.53;;;;;;;20.92;27.75;94146.09;4929410;29;20036;-68
2022/02/04 17:21:04;;;;;;;4.03;3.63;;;;;;;20.89;27.83;94144.00;4925417;28;20040;-68
2022/02/04 17:23:40;;;;;;;3.67;3.08;;;;;;;20.89;28.06;94150.06;4927148;28;20118;-68
2022/02/04 17:26:05;;;;;;;3.60;3.30;;;;;;;20.92;27.96;94147.97;4921061;28;20031;-67
2022/02/04 17:28:31;;;;;;;3.92;3.30;;;;;;;20.88;27.83;94147.69;4929715;28;20022;-68
2022/02/04 17:30:57;;;;;;;3.40;3.10;;;;;;;20.89;27.98;94144.00;4939472;28;20046;-68
2022/02/04 17:33:23;;;;;;;3.65;3.30;;;;;;;20.88;27.68;94147.69;4928138;28;20023;-68
2022/02/04 17:36:00;;;;;;;3.60;3.30;;;;;;;20.91;27.85;94163.03;4937138;29;20027;-68
2022/02/04 17:38:26;;;;;;;4.00;3.60;;;;;;;20.93;27.92;94152.97;4927129;28;20031;-67
2022/02/04 17:40:53;;;;;;;3.83;3.42;;;;;;;20.94;27.88;94157.19;4922929;29;20023;-68
2022/02/04 17:43:19;;;;;;;4.20;3.80;;;;;;;20.94;27.85;94165.13;4947686;28;20031;-67
2022/02/04 17:45:44;;;;;;;3.90;3.50;;;;;;;20.94;27.80;94151.91;4918126;29;20164;-67
2022/02/04 17:48:20;;;;;;;4.03;3.40;;;;;;;20.95;27.90;94153.50;4945826;28;20027;-68
2022/02/04 17:53:50;;;;;;;4.45;3.88;;;;;;;20.97;27.66;94167.25;4944595;28;20094;-68
2022/02/04 18:09:36;;;;;;;4.40;3.58;;;;;;;20.74;28.02;94155.41;4936912;28;20023;-68
2022/02/04 18:12:02;;;;;;;4.22;3.67;;;;;;;20.75;27.82;94158.81;4932663;28;20031;-67
2022/02/04 18:14:27;;;;;;;3.83;3.45;;;;;;;20.76;27.99;94139.28;4932500;28;20031;-67
2022/02/04 18:16:52;;;;;;;4.10;3.70;;;;;;;20.77;28.00;94143.50;4921952;28;20035;-67
2022/02/04 18:19:18;;;;;;;4.00;3.60;;;;;;;20.78;27.84;94145.09;4945604;28;20035;-68
2022/02/04 18:21:52;;;;;;;4.07;3.60;;;;;;;20.77;27.71;94159.34;4935682;28;20093;-68
2022/02/04 18:24:18;;;;;;;4.95;3.78;;;;;;;20.76;27.49;94149.84;4937612;28;20034;-68
2022/02/04 18:26:44;;;;;;;4.20;3.70;;;;;;;20.75;27.69;94149.03;4937943;29;20027;-68
2022/02/04 18:29:10;;;;;;;4.72;3.72;;;;;;;20.75;27.78;94148.25;4920753;28;20026;-67
2022/02/04 18:31:37;;;;;;;5.00;3.78;;;;;;;20.74;27.84;94146.69;4940764;28;20042;-68
2022/02/04 18:34:05;;;;;;;4.30;3.90;;;;;;;20.69;27.66;94143.00;4925674;28;20027;-67
2022/02/04 18:36:32;;;;;;;4.72;3.97;;;;;;;20.70;27.62;94141.91;4935753;28;20027;-68
2022/02/04 18:44:05;;;;;;;4.13;3.72;;;;;;;20.72;27.75;94154.88;4941402;28;20043;-67
2022/02/04 18:46:51;;;;;;;6.43;3.85;;;;;;;20.74;27.52;94162.53;4921808;28;20058;-67
2022/02/04 18:49:33;;;;;;;5.25;4.10;;;;;;;20.76;27.55;94160.41;4944337;28;20031;-68
2022/02/04 18:54:44;;;;;;;5.15;3.85;;;;;;;20.73;27.62;94158.28;4936680;28;20031;-68
2022/02/04 18:57:17;;;;;;;4.20;3.50;;;;;;;20.76;27.49;94161.19;4933464;28;20030;-68
2022/02/04 19:02:18;;;;;;;4.38;3.75;;;;;;;20.75;27.76;94164.88;4939698;28;20027;-68
2022/02/04 19:04:54;;;;;;;4.57;3.97;;;;;;;20.72;28.13;94167.31;4917811;29;20042;-67